Terminal Aerodrome Forecast
Issued by NWS Pittsburgh, PA

Current Version | Previous Version | Text Only | Print | Product List | Glossary Off
Versions: 1 2 3 4 5 6 7 8 9 10 11 12 13 14 15 16 17 18 19 20 21 22 23 24 25 26 27 28 29 30 31 32

156
FTUS41 KPBZ 011139
TAFPIT
TAF
KPIT 011139Z 0112/0218 09004KT P6SM SCT006 BKN035
     FM011400 13004KT P6SM BKN035
     FM020900 18003KT P6SM BKN025
     FM021400 18005KT P6SM BKN040=

USA.gov is the U.S. government's official web portal to all federal, state and local government web resources and services.